<?xml version='1.0' encoding='UTF-8'?>
<gpx version="1.1" creator="https://www.komoot.de" xmlns="http://www.topografix.com/GPX/1/1" xmlns:xsi="http://www.w3.org/2001/XMLSchema-instance" xsi:schemaLocation="http://www.topografix.com/GPX/1/1 http://www.topografix.com/GPX/1/1/gpx.xsd">
  <metadata>
    <name>🥾 Giovanni Wanderweg</name>
    <author>
      <link href="https://www.komoot.de">
        <text>komoot</text>
        <type>text/html</type>
      </link>
    </author>
  </metadata>
  <trk>
    <name>🥾 Giovanni Wanderweg</name>
    <trkseg>
      <trkpt lat="53.622415" lon="10.706184">
        <ele>35.408344</ele>
        <time>2025-09-02T09:19:59.601Z</time>
      </trkpt>
      <trkpt lat="53.622545" lon="10.706133">
        <ele>35.408344</ele>
        <time>2025-09-02T09:20:13.362Z</time>
      </trkpt>
      <trkpt lat="53.622511" lon="10.705828">
        <ele>35.408344</ele>
        <time>2025-09-02T09:20:32.406Z</time>
      </trkpt>
      <trkpt lat="53.622510" lon="10.704856">
        <ele>35.408344</ele>
        <time>2025-09-02T09:21:32.545Z</time>
      </trkpt>
      <trkpt lat="53.622546" lon="10.704663">
        <ele>35.081484</ele>
        <time>2025-09-02T09:21:45.132Z</time>
      </trkpt>
      <trkpt lat="53.622742" lon="10.704350">
        <ele>34.312229</ele>
        <time>2025-09-02T09:22:13.578Z</time>
      </trkpt>
      <trkpt lat="53.622644" lon="10.704057">
        <ele>33.743732</ele>
        <time>2025-09-02T09:22:34.656Z</time>
      </trkpt>
      <trkpt lat="53.622641" lon="10.703909">
        <ele>33.493458</ele>
        <time>2025-09-02T09:22:43.894Z</time>
      </trkpt>
      <trkpt lat="53.622669" lon="10.703816">
        <ele>33.317192</ele>
        <time>2025-09-02T09:22:50.412Z</time>
      </trkpt>
      <trkpt lat="53.622879" lon="10.703654">
        <ele>32.659135</ele>
        <time>2025-09-02T09:23:14.955Z</time>
      </trkpt>
      <trkpt lat="53.622893" lon="10.703073">
        <ele>31.676412</ele>
        <time>2025-09-02T09:23:51.519Z</time>
      </trkpt>
      <trkpt lat="53.622999" lon="10.703047">
        <ele>31.371184</ele>
        <time>2025-09-02T09:24:02.860Z</time>
      </trkpt>
      <trkpt lat="53.622974" lon="10.702638">
        <ele>30.676299</ele>
        <time>2025-09-02T09:24:28.688Z</time>
      </trkpt>
      <trkpt lat="53.622998" lon="10.702455">
        <ele>30.359551</ele>
        <time>2025-09-02T09:24:40.570Z</time>
      </trkpt>
      <trkpt lat="53.623047" lon="10.702336">
        <ele>30.113506</ele>
        <time>2025-09-02T09:24:49.715Z</time>
      </trkpt>
      <trkpt lat="53.623116" lon="10.702274">
        <ele>29.889106</ele>
        <time>2025-09-02T09:24:58.095Z</time>
      </trkpt>
      <trkpt lat="53.623188" lon="10.702314">
        <ele>29.671534</ele>
        <time>2025-09-02T09:25:06.309Z</time>
      </trkpt>
      <trkpt lat="53.623249" lon="10.702511">
        <ele>29.293248</ele>
        <time>2025-09-02T09:25:20.472Z</time>
      </trkpt>
      <trkpt lat="53.623326" lon="10.703039">
        <ele>28.367713</ele>
        <time>2025-09-02T09:25:55.483Z</time>
      </trkpt>
      <trkpt lat="53.623536" lon="10.703024">
        <ele>27.764461</ele>
        <time>2025-09-02T09:26:18.205Z</time>
      </trkpt>
      <trkpt lat="53.623924" lon="10.702874">
        <ele>26.621984</ele>
        <time>2025-09-02T09:27:01.019Z</time>
      </trkpt>
      <trkpt lat="53.623952" lon="10.702870">
        <ele>26.541334</ele>
        <time>2025-09-02T09:27:04.010Z</time>
      </trkpt>
      <trkpt lat="53.624207" lon="10.702838">
        <ele>25.807446</ele>
        <time>2025-09-02T09:27:30.831Z</time>
      </trkpt>
      <trkpt lat="53.624649" lon="10.702786">
        <ele>25.488633</ele>
        <time>2025-09-02T09:28:16.411Z</time>
      </trkpt>
      <trkpt lat="53.624778" lon="10.702654">
        <ele>25.760842</ele>
        <time>2025-09-02T09:28:31.502Z</time>
      </trkpt>
      <trkpt lat="53.624417" lon="10.703058">
        <ele>26.542453</ele>
        <time>2025-09-02T09:29:16.854Z</time>
      </trkpt>
      <trkpt lat="53.624235" lon="10.703423">
        <ele>27.052638</ele>
        <time>2025-09-02T09:29:47.978Z</time>
      </trkpt>
      <trkpt lat="53.624227" lon="10.703644">
        <ele>27.289522</ele>
        <time>2025-09-02T09:30:02.582Z</time>
      </trkpt>
      <trkpt lat="53.624064" lon="10.703979">
        <ele>27.753117</ele>
        <time>2025-09-02T09:30:31.354Z</time>
      </trkpt>
      <trkpt lat="53.624036" lon="10.704007">
        <ele>27.811843</ele>
        <time>2025-09-02T09:30:35.060Z</time>
      </trkpt>
      <trkpt lat="53.623876" lon="10.704168">
        <ele>28.147967</ele>
        <time>2025-09-02T09:30:56.166Z</time>
      </trkpt>
      <trkpt lat="53.623690" lon="10.704813">
        <ele>29.431078</ele>
        <time>2025-09-02T09:31:44.707Z</time>
      </trkpt>
      <trkpt lat="53.623643" lon="10.705019">
        <ele>29.888774</ele>
        <time>2025-09-02T09:31:59.694Z</time>
      </trkpt>
      <trkpt lat="53.623690" lon="10.704813">
        <ele>30.346470</ele>
        <time>2025-09-02T09:32:14.626Z</time>
      </trkpt>
      <trkpt lat="53.623374" lon="10.704731">
        <ele>31.464345</ele>
        <time>2025-09-02T09:32:50.651Z</time>
      </trkpt>
      <trkpt lat="53.622947" lon="10.704565">
        <ele>32.996486</ele>
        <time>2025-09-02T09:33:39.752Z</time>
      </trkpt>
      <trkpt lat="53.622811" lon="10.704493">
        <ele>33.494888</ele>
        <time>2025-09-02T09:33:55.619Z</time>
      </trkpt>
      <trkpt lat="53.622742" lon="10.704350">
        <ele>33.877171</ele>
        <time>2025-09-02T09:34:07.832Z</time>
      </trkpt>
      <trkpt lat="53.622546" lon="10.704663">
        <ele>34.712515</ele>
        <time>2025-09-02T09:34:38.001Z</time>
      </trkpt>
      <trkpt lat="53.622510" lon="10.704856">
        <ele>34.858899</ele>
        <time>2025-09-02T09:34:51.343Z</time>
      </trkpt>
      <trkpt lat="53.622511" lon="10.705828">
        <ele>35.562168</ele>
        <time>2025-09-02T09:35:54.069Z</time>
      </trkpt>
      <trkpt lat="53.622545" lon="10.706133">
        <ele>35.786708</ele>
        <time>2025-09-02T09:36:13.368Z</time>
      </trkpt>
      <trkpt lat="53.622415" lon="10.706184">
        <ele>35.949532</ele>
        <time>2025-09-02T09:36:27.221Z</time>
      </trkpt>
      <trkpt lat="53.622226" lon="10.706224">
        <ele>36.181903</ele>
        <time>2025-09-02T09:36:46.671Z</time>
      </trkpt>
      <trkpt lat="53.622164" lon="10.706262">
        <ele>36.262379</ele>
        <time>2025-09-02T09:36:53.343Z</time>
      </trkpt>
      <trkpt lat="53.622029" lon="10.706345">
        <ele>36.437673</ele>
        <time>2025-09-02T09:37:07.670Z</time>
      </trkpt>
      <trkpt lat="53.621930" lon="10.706393">
        <ele>36.563338</ele>
        <time>2025-09-02T09:37:18.021Z</time>
      </trkpt>
      <trkpt lat="53.621929" lon="10.706813">
        <ele>36.818365</ele>
        <time>2025-09-02T09:37:43.271Z</time>
      </trkpt>
      <trkpt lat="53.621878" lon="10.706897">
        <ele>36.678196</ele>
        <time>2025-09-02T09:37:50.464Z</time>
      </trkpt>
      <trkpt lat="53.621751" lon="10.706902">
        <ele>36.428445</ele>
        <time>2025-09-02T09:38:03.462Z</time>
      </trkpt>
      <trkpt lat="53.621542" lon="10.706924">
        <ele>36.016750</ele>
        <time>2025-09-02T09:38:25.034Z</time>
      </trkpt>
      <trkpt lat="53.621516" lon="10.706932">
        <ele>35.964789</ele>
        <time>2025-09-02T09:38:27.698Z</time>
      </trkpt>
      <trkpt lat="53.621423" lon="10.707001">
        <ele>35.765031</ele>
        <time>2025-09-02T09:38:38.162Z</time>
      </trkpt>
      <trkpt lat="53.621372" lon="10.707054">
        <ele>35.647248</ele>
        <time>2025-09-02T09:38:44.392Z</time>
      </trkpt>
      <trkpt lat="53.620790" lon="10.706995">
        <ele>34.500965</ele>
        <time>2025-09-02T09:39:45.320Z</time>
      </trkpt>
      <trkpt lat="53.620482" lon="10.707156">
        <ele>33.866999</ele>
        <time>2025-09-02T09:40:19.672Z</time>
      </trkpt>
      <trkpt lat="53.620303" lon="10.707070">
        <ele>33.501074</ele>
        <time>2025-09-02T09:40:39.397Z</time>
      </trkpt>
      <trkpt lat="53.620058" lon="10.707097">
        <ele>33.072896</ele>
        <time>2025-09-02T09:41:05.393Z</time>
      </trkpt>
      <trkpt lat="53.619871" lon="10.707044">
        <ele>32.769230</ele>
        <time>2025-09-02T09:41:25.496Z</time>
      </trkpt>
      <trkpt lat="53.619799" lon="10.707115">
        <ele>32.635654</ele>
        <time>2025-09-02T09:41:34.305Z</time>
      </trkpt>
      <trkpt lat="53.619721" lon="10.707514">
        <ele>32.236605</ele>
        <time>2025-09-02T09:42:00.568Z</time>
      </trkpt>
      <trkpt lat="53.619220" lon="10.707348">
        <ele>31.418951</ele>
        <time>2025-09-02T09:42:53.794Z</time>
      </trkpt>
      <trkpt lat="53.618623" lon="10.707306">
        <ele>30.462076</ele>
        <time>2025-09-02T09:43:54.365Z</time>
      </trkpt>
      <trkpt lat="53.618137" lon="10.707415">
        <ele>30.386723</ele>
        <time>2025-09-02T09:44:44.931Z</time>
      </trkpt>
      <trkpt lat="53.617654" lon="10.707841">
        <ele>30.334372</ele>
        <time>2025-09-02T09:45:41.241Z</time>
      </trkpt>
      <trkpt lat="53.617284" lon="10.708180">
        <ele>30.293929</ele>
        <time>2025-09-02T09:46:23.413Z</time>
      </trkpt>
      <trkpt lat="53.617052" lon="10.708316">
        <ele>30.270339</ele>
        <time>2025-09-02T09:46:48.350Z</time>
      </trkpt>
      <trkpt lat="53.616632" lon="10.708559">
        <ele>29.556866</ele>
        <time>2025-09-02T09:47:34.420Z</time>
      </trkpt>
      <trkpt lat="53.616203" lon="10.708804">
        <ele>28.589111</ele>
        <time>2025-09-02T09:48:22.185Z</time>
      </trkpt>
      <trkpt lat="53.615569" lon="10.709269">
        <ele>27.111875</ele>
        <time>2025-09-02T09:49:35.576Z</time>
      </trkpt>
      <trkpt lat="53.615170" lon="10.709565">
        <ele>26.350344</ele>
        <time>2025-09-02T09:50:21.087Z</time>
      </trkpt>
      <trkpt lat="53.614504" lon="10.709964">
        <ele>25.927769</ele>
        <time>2025-09-02T09:51:32.895Z</time>
      </trkpt>
      <trkpt lat="53.614005" lon="10.709691">
        <ele>25.614116</ele>
        <time>2025-09-02T09:52:26.060Z</time>
      </trkpt>
      <trkpt lat="53.613448" lon="10.709630">
        <ele>25.157620</ele>
        <time>2025-09-02T09:53:22.071Z</time>
      </trkpt>
      <trkpt lat="53.613234" lon="10.709695">
        <ele>24.764188</ele>
        <time>2025-09-02T09:53:44.157Z</time>
      </trkpt>
      <trkpt lat="53.613011" lon="10.709762">
        <ele>24.354348</ele>
        <time>2025-09-02T09:54:07.329Z</time>
      </trkpt>
      <trkpt lat="53.612761" lon="10.710046">
        <ele>23.808885</ele>
        <time>2025-09-02T09:54:38.659Z</time>
      </trkpt>
      <trkpt lat="53.612456" lon="10.710591">
        <ele>23.004681</ele>
        <time>2025-09-02T09:55:25.307Z</time>
      </trkpt>
      <trkpt lat="53.611996" lon="10.710818">
        <ele>22.137456</ele>
        <time>2025-09-02T09:56:16.243Z</time>
      </trkpt>
      <trkpt lat="53.611758" lon="10.711528">
        <ele>21.343790</ele>
        <time>2025-09-02T09:57:07.541Z</time>
      </trkpt>
      <trkpt lat="53.611296" lon="10.711977">
        <ele>20.474482</ele>
        <time>2025-09-02T09:58:02.910Z</time>
      </trkpt>
      <trkpt lat="53.610925" lon="10.711840">
        <ele>19.855378</ele>
        <time>2025-09-02T09:58:41.827Z</time>
      </trkpt>
      <trkpt lat="53.610583" lon="10.711691">
        <ele>19.279568</ele>
        <time>2025-09-02T09:59:17.664Z</time>
      </trkpt>
      <trkpt lat="53.610112" lon="10.711594">
        <ele>18.841811</ele>
        <time>2025-09-02T10:00:05.351Z</time>
      </trkpt>
      <trkpt lat="53.609814" lon="10.711432">
        <ele>18.595587</ele>
        <time>2025-09-02T10:00:37.008Z</time>
      </trkpt>
      <trkpt lat="53.609637" lon="10.711156">
        <ele>18.405973</ele>
        <time>2025-09-02T10:01:01.442Z</time>
      </trkpt>
      <trkpt lat="53.609564" lon="10.710880">
        <ele>18.264991</ele>
        <time>2025-09-02T10:01:19.725Z</time>
      </trkpt>
      <trkpt lat="53.609626" lon="10.710634">
        <ele>18.140296</ele>
        <time>2025-09-02T10:01:35.954Z</time>
      </trkpt>
      <trkpt lat="53.610048" lon="10.709771">
        <ele>17.736848</ele>
        <time>2025-09-02T10:02:44.115Z</time>
      </trkpt>
      <trkpt lat="53.610222" lon="10.709008">
        <ele>17.725982</ele>
        <time>2025-09-02T10:03:33.730Z</time>
      </trkpt>
      <trkpt lat="53.610389" lon="10.708699">
        <ele>17.720426</ele>
        <time>2025-09-02T10:03:58.978Z</time>
      </trkpt>
      <trkpt lat="53.610461" lon="10.708566">
        <ele>17.718033</ele>
        <time>2025-09-02T10:04:09.744Z</time>
      </trkpt>
      <trkpt lat="53.611470" lon="10.707427">
        <ele>18.700181</ele>
        <time>2025-09-02T10:06:15.754Z</time>
      </trkpt>
      <trkpt lat="53.611914" lon="10.706710">
        <ele>20.198859</ele>
        <time>2025-09-02T10:07:24.098Z</time>
      </trkpt>
      <trkpt lat="53.612387" lon="10.706780">
        <ele>21.356171</ele>
        <time>2025-09-02T10:08:17.150Z</time>
      </trkpt>
      <trkpt lat="53.613074" lon="10.706720">
        <ele>22.252079</ele>
        <time>2025-09-02T10:09:32.233Z</time>
      </trkpt>
      <trkpt lat="53.613252" lon="10.706705">
        <ele>22.329029</ele>
        <time>2025-09-02T10:09:51.093Z</time>
      </trkpt>
      <trkpt lat="53.613999" lon="10.706477">
        <ele>22.656804</ele>
        <time>2025-09-02T10:11:07.222Z</time>
      </trkpt>
      <trkpt lat="53.615018" lon="10.706203">
        <ele>23.118395</ele>
        <time>2025-09-02T10:12:53.310Z</time>
      </trkpt>
      <trkpt lat="53.615657" lon="10.705988">
        <ele>23.418424</ele>
        <time>2025-09-02T10:13:59.822Z</time>
      </trkpt>
      <trkpt lat="53.616426" lon="10.705690">
        <ele>24.146236</ele>
        <time>2025-09-02T10:15:23.986Z</time>
      </trkpt>
      <trkpt lat="53.616785" lon="10.705551">
        <ele>24.980694</ele>
        <time>2025-09-02T10:16:04.371Z</time>
      </trkpt>
      <trkpt lat="53.619079" lon="10.704621">
        <ele>30.608883</ele>
        <time>2025-09-02T10:20:19.853Z</time>
      </trkpt>
      <trkpt lat="53.619216" lon="10.704566">
        <ele>30.963183</ele>
        <time>2025-09-02T10:20:35.530Z</time>
      </trkpt>
      <trkpt lat="53.619324" lon="10.704522">
        <ele>31.242709</ele>
        <time>2025-09-02T10:20:48.035Z</time>
      </trkpt>
      <trkpt lat="53.620527" lon="10.704034">
        <ele>33.604711</ele>
        <time>2025-09-02T10:23:03.337Z</time>
      </trkpt>
      <trkpt lat="53.621899" lon="10.703479">
        <ele>35.169787</ele>
        <time>2025-09-02T10:25:27.618Z</time>
      </trkpt>
      <trkpt lat="53.621999" lon="10.704902">
        <ele>35.169787</ele>
        <time>2025-09-02T10:26:57.193Z</time>
      </trkpt>
      <trkpt lat="53.622025" lon="10.704897">
        <ele>35.169787</ele>
        <time>2025-09-02T10:26:59.811Z</time>
      </trkpt>
      <trkpt lat="53.622031" lon="10.705052">
        <ele>35.169787</ele>
        <time>2025-09-02T10:27:09.032Z</time>
      </trkpt>
      <trkpt lat="53.621994" lon="10.705194">
        <ele>35.169787</ele>
        <time>2025-09-02T10:27:18.239Z</time>
      </trkpt>
      <trkpt lat="53.621922" lon="10.705303">
        <ele>35.169787</ele>
        <time>2025-09-02T10:27:27.924Z</time>
      </trkpt>
      <trkpt lat="53.621903" lon="10.705457">
        <ele>35.169787</ele>
        <time>2025-09-02T10:27:37.262Z</time>
      </trkpt>
      <trkpt lat="53.621903" lon="10.705624">
        <ele>35.169787</ele>
        <time>2025-09-02T10:27:47.175Z</time>
      </trkpt>
      <trkpt lat="53.621912" lon="10.705781">
        <ele>35.169787</ele>
        <time>2025-09-02T10:27:56.538Z</time>
      </trkpt>
      <trkpt lat="53.621933" lon="10.705941">
        <ele>35.169787</ele>
        <time>2025-09-02T10:28:06.265Z</time>
      </trkpt>
      <trkpt lat="53.621943" lon="10.706095">
        <ele>35.169787</ele>
        <time>2025-09-02T10:28:15.461Z</time>
      </trkpt>
      <trkpt lat="53.621959" lon="10.706248">
        <ele>35.169787</ele>
        <time>2025-09-02T10:28:24.683Z</time>
      </trkpt>
      <trkpt lat="53.622039" lon="10.706332">
        <ele>35.169787</ele>
        <time>2025-09-02T10:28:34.115Z</time>
      </trkpt>
      <trkpt lat="53.622126" lon="10.706258">
        <ele>35.169787</ele>
        <time>2025-09-02T10:28:43.866Z</time>
      </trkpt>
      <trkpt lat="53.622218" lon="10.706205">
        <ele>35.169787</ele>
        <time>2025-09-02T10:28:53.596Z</time>
      </trkpt>
      <trkpt lat="53.622310" lon="10.706147">
        <ele>35.169787</ele>
        <time>2025-09-02T10:29:03.426Z</time>
      </trkpt>
      <trkpt lat="53.622348" lon="10.706134">
        <ele>35.169787</ele>
        <time>2025-09-02T10:29:07.307Z</time>
      </trkpt>
    </trkseg>
  </trk>
</gpx>